Vergas, Minnesota
Current Conditions -  °F | °C
As of 6:15 AM on Thursday 29 Jan 2015 (Local Time) from KDTL Reporting Station
Overcast Overcast  
Wind Chill:   Ceiling: 1000
Heat Index: 19°   Visibility: 10mi
Dew Point: 18°   Wind: 17mph
Humidity: 93%   Direction: 330°NNW
Pressure: 30.22"   Gusts: 25mph
Location:  46.66°N, 95.81°W
Report Text: KDTL 291215Z AUTO 33015G22KT 10SM OVC010 M07/M08 A3022 RMK AO2
Loading
Personal Weather Stations






























Interactive Weather Map New forecast layout! Learn more

10-Day Weather Forecast

Advertisements
Track Severe Weather on mobile